createdAt,value
2019-04-12T00:00:10.157Z,0.00
2019-04-12T00:01:10.194Z,0.00
2019-04-12T00:02:10.230Z,0.00
2019-04-12T00:03:10.269Z,0.00
2019-04-12T00:04:10.307Z,0.00
2019-04-12T00:05:10.343Z,0.00
2019-04-12T00:06:10.376Z,0.00
2019-04-12T00:07:10.415Z,0.00
2019-04-12T00:08:10.452Z,0.00
2019-04-12T00:09:10.504Z,0.00
2019-04-12T00:10:10.522Z,0.00
2019-04-12T00:11:10.558Z,0.00
2019-04-12T00:12:10.595Z,0.00
2019-04-12T00:13:10.632Z,0.00
2019-04-12T00:14:10.666Z,0.00
2019-04-12T00:15:12.175Z,0.00
2019-04-12T00:16:11.892Z,0.00
2019-04-12T00:17:13.756Z,0.00
2019-04-12T00:18:11.985Z,0.00
2019-04-12T00:19:13.564Z,0.00
2019-04-12T00:20:13.691Z,0.00
2019-04-12T00:21:14.738Z,0.00
2019-04-12T00:22:10.957Z,0.00
2019-04-12T00:23:10.993Z,0.00
2019-04-12T00:24:11.030Z,0.00
2019-04-12T00:25:11.067Z,0.00
2019-04-12T00:26:11.102Z,0.00
2019-04-12T00:27:11.145Z,0.00
2019-04-12T00:28:11.174Z,0.00
2019-04-12T00:29:11.217Z,0.00
2019-04-12T00:30:11.248Z,0.00
2019-04-12T00:31:11.307Z,0.00
2019-04-12T00:32:11.319Z,0.00
2019-04-12T00:33:11.356Z,0.00
2019-04-12T00:34:11.391Z,0.00
2019-04-12T00:35:11.435Z,0.00
2019-04-12T00:36:11.467Z,0.00
2019-04-12T00:37:11.502Z,0.00
2019-04-12T00:38:11.538Z,0.00
2019-04-12T00:39:11.574Z,0.00
2019-04-12T00:40:11.611Z,0.00
2019-04-12T00:41:11.646Z,0.00
2019-04-12T00:42:11.682Z,0.00
2019-04-12T00:43:11.717Z,0.00
2019-04-12T00:44:11.756Z,0.00
2019-04-12T00:45:11.794Z,0.00
2019-04-12T00:46:11.827Z,0.00
2019-04-12T00:47:11.865Z,0.00
2019-04-12T00:48:11.898Z,0.00
2019-04-12T00:49:11.936Z,0.00
2019-04-12T00:50:12.266Z,0.00
2019-04-12T00:51:12.785Z,0.00
2019-04-12T00:52:14.916Z,0.00
2019-04-12T00:53:13.544Z,0.00
2019-04-12T00:54:13.749Z,0.00
2019-04-12T00:55:12.151Z,0.00
2019-04-12T00:56:12.199Z,0.00
2019-04-12T00:57:12.223Z,0.00
2019-04-12T00:58:16.053Z,0.00
2019-04-12T00:59:12.296Z,0.00
2019-04-12T01:00:12.341Z,0.00
2019-04-12T01:01:12.374Z,0.00
2019-04-12T01:02:12.403Z,0.00
2019-04-12T01:03:14.025Z,0.00
2019-04-12T01:04:15.894Z,0.00
2019-04-12T01:05:14.915Z,0.00
2019-04-12T01:06:12.558Z,0.00
2019-04-12T01:07:12.585Z,0.00
2019-04-12T01:08:12.636Z,0.00
2019-04-12T01:09:12.657Z,0.00
2019-04-12T01:10:12.694Z,0.00
2019-04-12T01:11:12.732Z,0.00
2019-04-12T01:12:12.765Z,0.00
2019-04-12T01:13:12.810Z,0.00
2019-04-12T01:14:12.842Z,0.00
2019-04-12T01:15:12.883Z,0.00
2019-04-12T01:16:12.910Z,0.00
2019-04-12T01:17:12.946Z,0.00
2019-04-12T01:18:12.981Z,0.00
2019-04-12T01:19:13.023Z,0.00
2019-04-12T01:20:13.055Z,0.00
2019-04-12T01:21:13.090Z,0.00
2019-04-12T01:22:13.124Z,0.00
2019-04-12T01:23:13.169Z,0.00
2019-04-12T01:24:13.205Z,0.00
2019-04-12T01:25:14.194Z,0.00
2019-04-12T01:26:15.394Z,0.00
2019-04-12T01:27:16.599Z,0.00
2019-04-12T01:28:13.341Z,0.00
2019-04-12T01:29:13.379Z,0.00
2019-04-12T01:30:13.412Z,0.00
2019-04-12T01:31:13.451Z,0.00
2019-04-12T01:32:13.487Z,0.00
2019-04-12T01:33:14.898Z,0.00
2019-04-12T01:34:13.559Z,0.00
2019-04-12T01:35:13.601Z,0.00
2019-04-12T01:36:13.629Z,0.00
2019-04-12T01:37:13.667Z,0.00
2019-04-12T01:38:13.702Z,0.00
2019-04-12T01:39:13.740Z,0.00
2019-04-12T01:40:13.775Z,0.00
2019-04-12T01:41:13.812Z,0.00
2019-04-12T01:42:13.847Z,0.00
2019-04-12T01:43:13.887Z,0.00
2019-04-12T01:44:13.926Z,0.00
2019-04-12T01:45:13.958Z,0.00
2019-04-12T01:46:13.993Z,0.00
2019-04-12T01:47:14.028Z,0.00
2019-04-12T01:48:14.067Z,0.00
2019-04-12T01:49:14.103Z,0.00
2019-04-12T01:50:14.138Z,0.00
2019-04-12T01:51:14.174Z,0.00
2019-04-12T01:52:14.211Z,0.00
2019-04-12T01:53:14.247Z,0.00
2019-04-12T01:54:14.282Z,0.00
2019-04-12T01:55:14.327Z,0.00
2019-04-12T01:56:14.357Z,0.00
2019-04-12T01:57:14.398Z,0.00
2019-04-12T01:58:14.431Z,0.00
2019-04-12T01:59:14.465Z,0.00
2019-04-12T02:00:14.500Z,0.00
2019-04-12T02:01:14.537Z,0.00
2019-04-12T02:02:14.573Z,0.00
2019-04-12T02:03:14.619Z,0.00
2019-04-12T02:04:14.647Z,0.00
2019-04-12T02:05:14.683Z,0.00
2019-04-12T02:06:14.720Z,0.00
2019-04-12T02:07:14.756Z,0.00
2019-04-12T02:08:14.792Z,0.00
2019-04-12T02:09:14.837Z,0.00
2019-04-12T02:10:14.867Z,0.00
2019-04-12T02:11:14.901Z,0.00
2019-04-12T02:12:14.940Z,0.00
2019-04-12T02:13:14.974Z,0.00
2019-04-12T02:14:15.010Z,0.00
2019-04-12T02:15:15.047Z,0.00
2019-04-12T02:16:15.086Z,0.00
2019-04-12T02:17:15.122Z,0.00
2019-04-12T02:18:15.157Z,0.00
2019-04-12T02:19:15.192Z,0.00
2019-04-12T02:20:15.235Z,0.00
2019-04-12T02:21:15.271Z,0.00
2019-04-12T02:22:15.303Z,0.00
2019-04-12T02:23:15.340Z,0.00
2019-04-12T02:24:15.378Z,0.00
2019-04-12T02:25:20.870Z,0.00
2019-04-12T02:26:15.452Z,0.00
2019-04-12T02:27:15.485Z,0.00
2019-04-12T02:28:15.522Z,0.00
2019-04-12T02:29:15.561Z,0.00
2019-04-12T02:30:15.602Z,0.00
2019-04-12T02:31:15.633Z,0.00
2019-04-12T02:32:15.669Z,0.00
2019-04-12T02:33:15.705Z,0.00
2019-04-12T02:34:15.741Z,0.00
2019-04-12T02:35:15.777Z,0.00
2019-04-12T02:36:15.814Z,0.00
2019-04-12T02:37:15.902Z,0.00
2019-04-12T02:38:15.888Z,0.00
2019-04-12T02:39:15.924Z,0.00
2019-04-12T02:40:15.962Z,0.00
2019-04-12T02:41:16.002Z,0.00
2019-04-12T02:42:16.033Z,0.00
2019-04-12T02:43:16.073Z,0.00
2019-04-12T02:44:16.135Z,0.00
2019-04-12T02:45:16.147Z,0.00
2019-04-12T02:46:16.193Z,0.00
2019-04-12T02:47:16.224Z,0.00
2019-04-12T02:48:16.263Z,0.00
2019-04-12T02:49:16.343Z,0.00
2019-04-12T02:50:16.347Z,0.00
2019-04-12T02:51:16.379Z,0.00
2019-04-12T02:52:16.399Z,0.00
2019-04-12T02:53:16.438Z,0.00
2019-04-12T02:54:16.475Z,0.00
2019-04-12T02:55:16.511Z,0.00
2019-04-12T02:56:16.548Z,0.00
2019-04-12T02:57:16.597Z,0.00
2019-04-12T02:58:16.632Z,0.00
2019-04-12T02:59:16.657Z,0.00
2019-04-12T03:00:16.702Z,0.00
2019-04-12T03:01:16.729Z,0.00
2019-04-12T03:02:16.766Z,0.00
2019-04-12T03:03:16.802Z,0.00
2019-04-12T03:04:16.840Z,0.00
2019-04-12T03:05:16.913Z,0.00
2019-04-12T03:06:16.913Z,0.00
2019-04-12T03:07:16.955Z,0.00
2019-04-12T03:08:16.985Z,0.00
2019-04-12T03:09:17.023Z,0.00
2019-04-12T03:10:17.061Z,0.00
2019-04-12T03:11:17.096Z,0.00
2019-04-12T03:12:17.135Z,0.00
2019-04-12T03:13:17.174Z,0.00
2019-04-12T03:14:17.209Z,0.00
2019-04-12T03:15:17.243Z,0.00
2019-04-12T03:16:17.281Z,0.00
2019-04-12T03:17:17.340Z,0.00
2019-04-12T03:18:17.360Z,0.00
2019-04-12T03:19:17.396Z,0.00
2019-04-12T03:20:17.427Z,0.00
2019-04-12T03:21:17.463Z,0.00
2019-04-12T03:22:17.500Z,0.00
2019-04-12T03:23:17.545Z,0.00
2019-04-12T03:24:17.573Z,0.00
2019-04-12T03:25:17.611Z,0.00
2019-04-12T03:26:17.649Z,0.00
2019-04-12T03:27:17.688Z,0.00
2019-04-12T03:28:17.718Z,0.00
2019-04-12T03:29:17.762Z,0.00
2019-04-12T03:30:17.791Z,0.00
2019-04-12T03:31:17.832Z,0.00
2019-04-12T03:32:17.915Z,0.00
2019-04-12T03:33:17.920Z,0.00
2019-04-12T03:34:17.951Z,0.00
2019-04-12T03:35:17.978Z,0.00
2019-04-12T03:36:18.012Z,0.00
2019-04-12T03:37:18.047Z,0.00
2019-04-12T03:38:18.095Z,0.00
2019-04-12T03:39:18.121Z,0.00
2019-04-12T03:40:18.158Z,0.00
2019-04-12T03:41:18.194Z,0.00
2019-04-12T03:42:18.240Z,0.00
2019-04-12T03:43:18.267Z,0.00
2019-04-12T03:44:18.305Z,0.00
2019-04-12T03:45:18.339Z,0.00
2019-04-12T03:46:18.381Z,0.00
2019-04-12T03:47:18.415Z,0.00
2019-04-12T03:48:18.449Z,0.00
2019-04-12T03:49:18.491Z,0.00
2019-04-12T03:50:18.523Z,0.00
2019-04-12T03:51:18.561Z,0.00
2019-04-12T03:52:18.595Z,0.00
2019-04-12T03:53:18.642Z,0.00
2019-04-12T03:54:18.672Z,0.00
2019-04-12T03:55:18.709Z,0.00
2019-04-12T03:56:18.746Z,0.00
2019-04-12T03:57:18.781Z,0.00
2019-04-12T03:58:18.816Z,0.00
2019-04-12T03:59:18.855Z,0.00
2019-04-12T04:00:18.895Z,0.00
2019-04-12T04:01:18.928Z,0.00
2019-04-12T04:02:18.962Z,0.00
2019-04-12T04:03:19.099Z,0.00
2019-04-12T04:04:19.052Z,4.00
2019-04-12T04:05:19.071Z,0.00
2019-04-12T04:06:19.109Z,0.00
2019-04-12T04:07:19.145Z,4.00
2019-04-12T04:08:19.184Z,4.00
2019-04-12T04:09:19.233Z,4.00
2019-04-12T04:10:19.256Z,4.00
2019-04-12T04:11:19.295Z,4.00
2019-04-12T04:12:19.334Z,4.00
2019-04-12T04:13:19.365Z,4.00
2019-04-12T04:14:19.403Z,8.00
2019-04-12T04:15:19.439Z,12.00
2019-04-12T04:16:19.483Z,8.00
2019-04-12T04:17:19.515Z,12.00
2019-04-12T04:18:19.547Z,16.00
2019-04-12T04:19:19.589Z,16.00
2019-04-12T04:20:20.512Z,20.00
2019-04-12T04:21:19.659Z,24.00
2019-04-12T04:22:19.706Z,28.00
2019-04-12T04:23:19.751Z,32.00
2019-04-12T04:24:19.768Z,36.00
2019-04-12T04:25:19.803Z,44.00
2019-04-12T04:26:23.643Z,52.00
2019-04-12T04:27:19.877Z,52.00
2019-04-12T04:28:19.914Z,60.00
2019-04-12T04:29:19.963Z,68.00
2019-04-12T04:30:19.988Z,76.00
2019-04-12T04:31:20.042Z,84.00
2019-04-12T04:32:20.067Z,88.00
2019-04-12T04:33:20.097Z,100.00
2019-04-12T04:34:20.138Z,104.00
2019-04-12T04:35:20.168Z,116.00
2019-04-12T04:36:20.205Z,124.00
2019-04-12T04:37:20.244Z,136.00
2019-04-12T04:38:20.291Z,148.00
2019-04-12T04:39:20.324Z,156.00
2019-04-12T04:40:20.358Z,164.00
2019-04-12T04:41:20.384Z,172.00
2019-04-12T04:42:20.421Z,180.00
2019-04-12T04:43:20.465Z,192.00
2019-04-12T04:44:20.494Z,204.00
2019-04-12T04:45:20.532Z,220.00
2019-04-12T04:46:20.575Z,236.00
2019-04-12T04:47:20.606Z,252.00
2019-04-12T04:48:20.641Z,264.00
2019-04-12T04:49:20.684Z,288.00
2019-04-12T04:50:20.713Z,304.00
2019-04-12T04:51:20.750Z,328.00
2019-04-12T04:52:20.791Z,344.00
2019-04-12T04:53:20.831Z,368.00
2019-04-12T04:54:20.866Z,388.00
2019-04-12T04:55:20.897Z,400.00
2019-04-12T04:56:20.935Z,416.00
2019-04-12T04:57:20.988Z,436.00
2019-04-12T04:58:21.017Z,460.00
2019-04-12T04:59:21.043Z,484.00
2019-04-12T05:00:21.082Z,508.00
2019-04-12T05:01:21.114Z,540.00
2019-04-12T05:02:21.171Z,572.00
2019-04-12T05:03:21.188Z,600.00
2019-04-12T05:04:21.226Z,640.00
2019-04-12T05:05:21.351Z,680.00
2019-04-12T05:06:21.298Z,720.00
2019-04-12T05:07:21.335Z,756.00
2019-04-12T05:08:21.373Z,792.00
2019-04-12T05:09:21.406Z,836.00
2019-04-12T05:10:21.444Z,884.00
2019-04-12T05:11:21.480Z,932.00
2019-04-12T05:12:21.518Z,992.00
2019-04-12T05:13:21.555Z,1060.00
2019-04-12T05:14:21.587Z,1132.00
2019-04-12T05:15:21.625Z,1200.00
2019-04-12T05:16:21.662Z,1268.00
2019-04-12T05:17:21.761Z,1332.00
2019-04-12T05:18:21.741Z,1404.00
2019-04-12T05:19:21.773Z,1492.00
2019-04-12T05:20:21.808Z,1584.00
2019-04-12T05:21:21.845Z,1668.00
2019-04-12T05:22:21.881Z,1748.00
2019-04-12T05:23:21.919Z,1824.00
2019-04-12T05:24:21.974Z,1912.00
2019-04-12T05:25:21.991Z,2000.00
2019-04-12T05:26:22.028Z,2088.00
2019-04-12T05:27:22.067Z,2164.00
2019-04-12T05:28:23.108Z,2220.00
2019-04-12T05:29:22.140Z,2284.00
2019-04-12T05:30:22.174Z,2392.00
2019-04-12T05:31:22.212Z,2520.00
2019-04-12T05:32:22.249Z,2584.00
2019-04-12T05:33:22.287Z,2564.00
2019-04-12T05:34:22.332Z,2460.00
2019-04-12T05:35:22.359Z,2360.00
2019-04-12T05:36:22.395Z,2364.00
2019-04-12T05:37:22.433Z,2480.00
2019-04-12T05:38:22.469Z,2636.00
2019-04-12T05:39:22.509Z,2760.00
2019-04-12T05:40:22.545Z,2812.00
2019-04-12T05:41:22.681Z,2820.00
2019-04-12T05:42:22.623Z,2868.00
2019-04-12T05:43:22.652Z,2968.00
2019-04-12T05:44:22.692Z,3080.00
2019-04-12T05:45:22.730Z,3164.00
2019-04-12T05:46:22.765Z,3224.00
2019-04-12T05:47:22.801Z,3296.00
2019-04-12T05:48:22.836Z,3380.00
2019-04-12T05:49:22.876Z,3424.00
2019-04-12T05:50:22.911Z,3440.00
2019-04-12T05:51:23.644Z,3468.00
2019-04-12T05:52:22.989Z,3536.00
2019-04-12T05:53:23.021Z,3596.00
2019-04-12T05:54:23.057Z,3676.00
2019-04-12T05:55:23.096Z,3804.00
2019-04-12T05:56:23.131Z,3908.00
2019-04-12T05:57:23.169Z,3992.00
2019-04-12T05:58:23.207Z,4096.00
2019-04-12T05:59:23.383Z,4192.00
2019-04-12T06:00:23.475Z,4300.00
2019-04-12T06:01:23.332Z,4460.00
2019-04-12T06:02:23.354Z,4636.00
2019-04-12T06:03:23.389Z,4768.00
2019-04-12T06:04:23.436Z,4828.00
2019-04-12T06:05:23.469Z,4880.00
2019-04-12T06:06:23.514Z,4876.00
2019-04-12T06:07:23.561Z,4768.00
2019-04-12T06:08:23.580Z,4608.00
2019-04-12T06:09:23.612Z,4532.00
2019-04-12T06:10:23.657Z,4536.00
2019-04-12T06:11:23.695Z,4596.00
2019-04-12T06:12:23.725Z,4656.00
2019-04-12T06:13:23.765Z,4724.00
2019-04-12T06:14:23.833Z,4856.00
2019-04-12T06:15:23.833Z,5040.00
2019-04-12T06:16:23.871Z,5308.00
2019-04-12T06:17:23.910Z,5636.00
2019-04-12T06:18:24.055Z,5920.00
2019-04-12T06:19:23.990Z,6076.00
2019-04-12T06:20:24.018Z,6168.00
2019-04-12T06:21:24.059Z,6240.00
2019-04-12T06:22:24.094Z,6348.00
2019-04-12T06:23:24.140Z,6496.00
2019-04-12T06:24:24.170Z,6716.00
2019-04-12T06:25:24.214Z,6908.00
2019-04-12T06:26:24.249Z,7056.00
2019-04-12T06:27:24.279Z,7196.00
2019-04-12T06:28:24.317Z,7196.00
2019-04-12T06:29:24.359Z,7180.00
2019-04-12T06:30:24.399Z,7164.00
2019-04-12T06:31:24.429Z,7132.00
2019-04-12T06:32:24.466Z,7048.00
2019-04-12T06:33:24.503Z,6928.00
2019-04-12T06:34:24.542Z,6944.00
2019-04-12T06:35:24.580Z,7100.00
2019-04-12T06:36:24.618Z,7400.00
2019-04-12T06:37:24.655Z,7708.00
2019-04-12T06:38:24.719Z,8028.00
2019-04-12T06:39:24.865Z,8208.00
2019-04-12T06:40:24.767Z,8372.00
2019-04-12T06:41:24.806Z,8516.00
2019-04-12T06:42:24.844Z,8524.00
2019-04-12T06:43:24.886Z,8364.00
2019-04-12T06:44:24.915Z,8160.00
2019-04-12T06:45:24.961Z,8000.00
2019-04-12T06:46:24.991Z,7896.00
2019-04-12T06:47:26.154Z,7832.00
2019-04-12T06:48:25.065Z,7472.00
2019-04-12T06:49:25.109Z,7192.00
2019-04-12T06:50:25.136Z,7072.00
2019-04-12T06:51:25.176Z,6972.00
2019-04-12T06:52:25.213Z,6864.00
2019-04-12T06:53:25.254Z,6756.00
2019-04-12T06:54:25.287Z,6672.00
2019-04-12T06:55:25.325Z,6744.00
2019-04-12T06:56:25.517Z,6972.00
2019-04-12T06:57:25.400Z,7316.00
2019-04-12T06:58:25.437Z,7596.00
2019-04-12T06:59:25.516Z,7764.00
2019-04-12T07:00:25.524Z,7892.00
2019-04-12T07:01:25.554Z,7916.00
2019-04-12T07:02:25.587Z,7756.00
2019-04-12T07:03:25.625Z,7420.00
2019-04-12T07:04:25.661Z,6908.00
2019-04-12T07:05:25.700Z,6388.00
2019-04-12T07:06:25.744Z,5924.00
2019-04-12T07:07:25.781Z,5300.00
2019-04-12T07:08:25.814Z,4836.00
2019-04-12T07:09:25.868Z,4532.00
2019-04-12T07:10:25.886Z,4384.00
2019-04-12T07:11:25.924Z,4452.00
2019-04-12T07:12:25.961Z,4788.00
2019-04-12T07:13:26.001Z,5528.00
2019-04-12T07:14:26.036Z,6692.00
2019-04-12T07:15:26.078Z,7804.00
2019-04-12T07:16:26.112Z,8560.00
2019-04-12T07:17:26.161Z,9196.00
2019-04-12T07:18:26.204Z,9452.00
2019-04-12T07:19:26.232Z,9300.00
2019-04-12T07:20:26.268Z,9152.00
2019-04-12T07:21:26.372Z,8632.00
2019-04-12T07:22:26.339Z,7932.00
2019-04-12T07:23:26.375Z,7108.00
2019-04-12T07:24:26.466Z,6428.00
2019-04-12T07:25:26.454Z,5848.00
2019-04-12T07:26:26.488Z,5316.00
2019-04-12T07:27:34.345Z,4820.00
2019-04-12T07:28:26.567Z,4556.00
2019-04-12T07:29:26.611Z,4748.00
2019-04-12T07:30:26.637Z,5372.00
2019-04-12T07:31:26.676Z,6272.00
2019-04-12T07:32:26.724Z,7396.00
2019-04-12T07:33:26.750Z,8516.00
2019-04-12T07:34:26.797Z,9496.00
2019-04-12T07:35:26.927Z,10212.00
2019-04-12T07:36:26.870Z,10712.00
2019-04-12T07:37:26.905Z,10900.00
2019-04-12T07:38:26.940Z,10764.00
2019-04-12T07:39:26.984Z,10412.00
2019-04-12T07:40:27.017Z,9952.00
2019-04-12T07:41:27.051Z,9476.00
2019-04-12T07:42:27.092Z,9068.00
2019-04-12T07:43:27.124Z,8704.00
2019-04-12T07:44:27.170Z,8432.00
2019-04-12T07:45:27.205Z,8348.00
2019-04-12T07:46:27.236Z,8412.00
2019-04-12T07:47:27.284Z,8700.00
2019-04-12T07:48:27.313Z,9228.00
2019-04-12T07:49:27.352Z,9840.00
2019-04-12T07:50:27.388Z,10396.00
2019-04-12T07:51:27.428Z,10972.00
2019-04-12T07:52:27.465Z,11428.00
2019-04-12T07:53:27.501Z,11792.00
2019-04-12T07:54:27.539Z,12028.00
2019-04-12T07:55:27.579Z,12032.00
2019-04-12T07:56:28.906Z,11764.00
2019-04-12T07:57:27.657Z,11144.00
2019-04-12T07:58:27.690Z,10308.00
2019-04-12T07:59:27.727Z,9632.00
2019-04-12T08:00:27.774Z,9312.00
2019-04-12T08:01:27.803Z,9316.00
2019-04-12T08:02:27.842Z,9312.00
2019-04-12T08:03:28.011Z,9232.00
2019-04-12T08:04:27.989Z,9040.00
2019-04-12T08:05:27.983Z,8740.00
2019-04-12T08:06:27.993Z,8412.00
2019-04-12T08:07:28.028Z,8140.00
2019-04-12T08:08:28.072Z,7952.00
2019-04-12T08:09:28.107Z,7764.00
2019-04-12T08:10:28.145Z,7700.00
2019-04-12T08:11:28.182Z,7920.00
2019-04-12T08:12:28.219Z,8452.00
2019-04-12T08:13:28.257Z,8956.00
2019-04-12T08:14:28.308Z,9364.00
2019-04-12T08:15:28.340Z,9732.00
2019-04-12T08:16:28.377Z,10112.00
2019-04-12T08:17:28.419Z,10556.00
2019-04-12T08:18:28.451Z,11096.00
2019-04-12T08:19:28.495Z,11480.00
2019-04-12T08:20:28.530Z,11564.00
2019-04-12T08:21:28.564Z,11552.00
2019-04-12T08:22:28.607Z,11548.00
2019-04-12T08:23:28.643Z,11488.00
2019-04-12T08:24:28.678Z,11448.00
2019-04-12T08:25:28.713Z,11420.00
2019-04-12T08:26:28.813Z,11488.00
2019-04-12T08:27:28.792Z,11640.00
2019-04-12T08:28:28.825Z,11696.00
2019-04-12T08:29:28.869Z,11600.00
2019-04-12T08:30:28.902Z,11416.00
2019-04-12T08:31:28.940Z,11172.00
2019-04-12T08:32:28.994Z,10948.00
2019-04-12T08:33:29.071Z,10928.00
2019-04-12T08:34:29.063Z,11148.00
2019-04-12T08:35:29.093Z,11452.00
2019-04-12T08:36:29.135Z,11812.00
2019-04-12T08:37:29.193Z,12156.00
2019-04-12T08:38:29.211Z,12512.00
2019-04-12T08:39:29.249Z,12812.00
2019-04-12T08:40:29.473Z,13056.00
2019-04-12T08:41:29.321Z,13152.00
2019-04-12T08:42:29.435Z,13264.00
2019-04-12T08:43:29.398Z,13488.00
2019-04-12T08:44:29.436Z,13632.00
2019-04-12T08:45:29.486Z,13612.00
2019-04-12T08:46:29.516Z,13628.00
2019-04-12T08:47:29.570Z,13600.00
2019-04-12T08:48:29.627Z,13504.00
2019-04-12T08:49:29.667Z,13376.00
2019-04-12T08:50:29.685Z,13292.00
2019-04-12T08:51:29.727Z,13264.00
2019-04-12T08:52:29.760Z,13288.00
2019-04-12T08:53:29.807Z,13368.00
2019-04-12T08:54:29.875Z,13372.00
2019-04-12T08:55:29.859Z,13176.00
2019-04-12T08:56:29.908Z,12892.00
2019-04-12T08:57:29.934Z,12540.00
2019-04-12T08:58:30.842Z,12132.00
2019-04-12T08:59:30.047Z,11564.00
2019-04-12T09:00:30.047Z,10908.00
2019-04-12T09:01:30.101Z,10344.00
2019-04-12T09:02:30.131Z,9896.00
2019-04-12T09:03:30.160Z,9656.00
2019-04-12T09:04:30.290Z,9516.00
2019-04-12T09:05:33.133Z,9368.00
2019-04-12T09:06:30.292Z,9248.00
2019-04-12T09:07:30.361Z,9072.00
2019-04-12T09:08:30.389Z,8888.00
2019-04-12T09:09:30.495Z,8700.00
2019-04-12T09:10:30.477Z,8516.00
2019-04-12T09:11:30.500Z,8532.00
2019-04-12T09:12:30.534Z,8620.00
2019-04-12T09:13:30.620Z,8836.00
2019-04-12T09:14:30.771Z,9136.00
2019-04-12T09:15:30.621Z,9496.00
2019-04-12T09:16:30.705Z,9876.00
2019-04-12T09:17:30.703Z,10288.00
2019-04-12T09:18:31.015Z,10652.00
2019-04-12T09:19:30.867Z,10988.00
2019-04-12T09:20:30.833Z,11420.00
2019-04-12T09:21:30.852Z,11864.00
2019-04-12T09:22:30.927Z,12244.00
2019-04-12T09:23:31.070Z,12656.00
2019-04-12T09:24:31.014Z,13156.00
2019-04-12T09:25:31.020Z,13460.00
2019-04-12T09:26:31.101Z,13688.00
2019-04-12T09:27:31.081Z,13880.00
2019-04-12T09:28:31.181Z,14016.00
2019-04-12T09:29:31.173Z,14000.00
2019-04-12T09:30:31.292Z,13840.00
2019-04-12T09:31:31.232Z,13612.00
2019-04-12T09:32:31.355Z,13372.00
2019-04-12T09:33:31.414Z,13100.00
2019-04-12T09:34:31.346Z,12768.00
2019-04-12T09:35:31.387Z,12412.00
2019-04-12T09:36:31.434Z,11868.00
2019-04-12T09:37:31.475Z,11120.00
2019-04-12T09:38:31.502Z,10264.00
2019-04-12T09:39:31.541Z,9480.00
2019-04-12T09:40:31.578Z,8724.00
2019-04-12T09:41:31.616Z,7984.00
2019-04-12T09:42:31.654Z,7272.00
2019-04-12T09:43:31.697Z,6648.00
2019-04-12T09:44:31.731Z,6032.00
2019-04-12T09:45:31.769Z,5476.00
2019-04-12T09:46:31.885Z,5068.00
2019-04-12T09:47:31.858Z,4784.00
2019-04-12T09:48:31.920Z,4516.00
2019-04-12T09:49:31.926Z,4268.00
2019-04-12T09:50:31.962Z,4092.00
2019-04-12T09:51:32.002Z,3912.00
2019-04-12T09:52:32.038Z,3764.00
2019-04-12T09:53:32.078Z,3708.00
2019-04-12T09:54:32.125Z,3724.00
2019-04-12T09:55:32.154Z,4016.00
2019-04-12T09:56:32.197Z,4612.00
2019-04-12T09:57:32.229Z,5716.00
2019-04-12T09:58:37.565Z,6948.00
2019-04-12T09:59:32.374Z,7928.00
2019-04-12T10:00:32.350Z,8880.00
2019-04-12T10:01:32.648Z,9968.00
2019-04-12T10:02:32.417Z,11048.00
2019-04-12T10:03:32.465Z,11972.00
2019-04-12T10:04:32.495Z,12856.00
2019-04-12T10:05:32.533Z,13640.00
2019-04-12T10:06:32.572Z,14308.00
2019-04-12T10:07:32.610Z,14804.00
2019-04-12T10:08:32.660Z,15164.00
2019-04-12T10:09:32.684Z,15440.00
2019-04-12T10:10:32.722Z,16224.00
2019-04-12T10:11:32.767Z,17216.00
2019-04-12T10:12:32.805Z,18336.00
2019-04-12T10:13:32.848Z,19360.00
2019-04-12T10:14:32.879Z,20128.00
2019-04-12T10:15:32.914Z,20640.00
2019-04-12T10:16:32.953Z,20768.00
2019-04-12T10:17:33.002Z,20704.00
2019-04-12T10:18:33.044Z,20608.00
2019-04-12T10:19:33.078Z,20480.00
2019-04-12T10:20:33.109Z,20576.00
2019-04-12T10:21:33.197Z,20608.00
2019-04-12T10:22:33.205Z,20352.00
2019-04-12T10:23:33.228Z,20160.00
2019-04-12T10:24:33.271Z,20064.00
2019-04-12T10:25:33.305Z,20032.00
2019-04-12T10:26:33.348Z,19968.00
2019-04-12T10:27:33.380Z,19840.00
2019-04-12T10:28:33.418Z,19648.00
2019-04-12T10:29:33.481Z,19456.00
2019-04-12T10:30:33.495Z,19328.00
2019-04-12T10:31:33.534Z,19200.00
2019-04-12T10:32:33.624Z,19232.00
2019-04-12T10:33:33.613Z,18976.00
2019-04-12T10:34:33.653Z,18560.00
2019-04-12T10:35:33.783Z,18144.00
2019-04-12T10:36:33.732Z,17824.00
2019-04-12T10:37:33.773Z,17824.00
2019-04-12T10:38:33.810Z,18080.00
2019-04-12T10:39:33.858Z,18560.00
2019-04-12T10:40:33.891Z,19008.00
2019-04-12T10:41:33.940Z,19552.00
2019-04-12T10:42:33.977Z,19680.00
2019-04-12T10:43:34.009Z,19808.00
2019-04-12T10:44:34.049Z,20064.00
2019-04-12T10:45:34.094Z,20224.00
2019-04-12T10:46:34.130Z,20384.00
2019-04-12T10:47:34.187Z,20576.00
2019-04-12T10:48:34.210Z,20576.00
2019-04-12T10:49:34.245Z,20544.00
2019-04-12T10:50:34.285Z,20384.00
2019-04-12T10:51:34.336Z,20128.00
2019-04-12T10:52:34.364Z,19648.00
2019-04-12T10:53:34.406Z,18976.00
2019-04-12T10:54:34.462Z,18336.00
2019-04-12T10:55:34.487Z,17888.00
2019-04-12T10:56:34.529Z,17664.00
2019-04-12T10:57:34.564Z,17504.00
2019-04-12T10:58:34.619Z,17312.00
2019-04-12T10:59:34.643Z,17152.00
2019-04-12T11:00:34.686Z,17024.00
2019-04-12T11:01:34.725Z,16960.00
2019-04-12T11:02:34.760Z,16960.00
2019-04-12T11:03:34.823Z,16992.00
2019-04-12T11:04:34.839Z,17056.00
2019-04-12T11:05:34.895Z,16992.00
2019-04-12T11:06:34.919Z,16896.00
2019-04-12T11:07:34.963Z,17248.00
2019-04-12T11:08:35.049Z,17632.00
2019-04-12T11:09:35.051Z,17920.00
2019-04-12T11:10:35.078Z,18112.00
2019-04-12T11:11:35.130Z,17952.00
2019-04-12T11:12:35.159Z,17280.00
2019-04-12T11:13:35.197Z,15864.00
2019-04-12T11:14:35.250Z,14404.00
2019-04-12T11:15:35.576Z,13120.00
2019-04-12T11:16:35.316Z,12760.00
2019-04-12T11:17:35.375Z,12948.00
2019-04-12T11:18:35.398Z,13112.00
2019-04-12T11:19:35.435Z,14012.00
2019-04-12T11:20:35.476Z,15136.00
2019-04-12T11:21:35.532Z,16544.00
2019-04-12T11:22:35.597Z,17472.00
2019-04-12T11:23:35.591Z,18304.00
2019-04-12T11:24:35.633Z,18784.00
2019-04-12T11:25:35.671Z,19200.00
2019-04-12T11:26:35.715Z,19648.00
2019-04-12T11:27:35.750Z,19776.00
2019-04-12T11:28:35.794Z,19616.00
2019-04-12T11:29:35.830Z,19296.00
2019-04-12T11:30:35.870Z,18528.00
2019-04-12T11:31:35.946Z,18016.00
2019-04-12T11:32:36.057Z,17312.00
2019-04-12T11:33:35.989Z,16640.00
2019-04-12T11:34:36.030Z,15528.00
2019-04-12T11:35:36.082Z,14932.00
2019-04-12T11:36:36.117Z,14452.00
2019-04-12T11:37:36.149Z,14584.00
2019-04-12T11:38:36.188Z,14740.00
2019-04-12T11:39:36.231Z,14872.00
2019-04-12T11:40:36.266Z,14988.00
2019-04-12T11:41:36.311Z,15084.00
2019-04-12T11:42:36.347Z,15144.00
2019-04-12T11:43:36.390Z,15192.00
2019-04-12T11:44:36.422Z,15160.00
2019-04-12T11:45:36.465Z,15076.00
2019-04-12T11:46:37.680Z,15308.00
2019-04-12T11:47:36.550Z,15692.00
2019-04-12T11:48:36.585Z,16288.00
2019-04-12T11:49:36.623Z,16608.00
2019-04-12T11:50:36.670Z,16896.00
2019-04-12T11:51:36.710Z,17408.00
2019-04-12T11:52:36.743Z,17888.00
2019-04-12T11:53:36.786Z,18400.00
2019-04-12T11:54:36.827Z,18816.00
2019-04-12T11:55:36.867Z,19232.00
2019-04-12T11:56:36.909Z,19712.00
2019-04-12T11:57:37.967Z,20096.00
2019-04-12T11:58:48.097Z,20480.00
2019-04-12T11:59:37.028Z,20800.00
2019-04-12T12:00:37.086Z,21056.00
2019-04-12T12:01:37.108Z,21216.00
2019-04-12T12:02:37.140Z,21248.00
2019-04-12T12:03:37.183Z,21184.00
2019-04-12T12:04:37.218Z,21056.00
2019-04-12T12:05:37.257Z,20992.00
2019-04-12T12:06:37.307Z,21088.00
2019-04-12T12:07:49.283Z,21152.00
2019-04-12T12:08:37.434Z,21184.00
2019-04-12T12:09:37.416Z,21184.00
2019-04-12T12:10:37.460Z,21184.00
2019-04-12T12:11:37.501Z,21088.00
2019-04-12T12:12:37.530Z,20960.00
2019-04-12T12:13:37.673Z,20800.00
2019-04-12T12:14:37.611Z,20512.00
2019-04-12T12:15:37.656Z,20160.00
2019-04-12T12:16:37.759Z,19808.00
2019-04-12T12:17:37.733Z,19488.00
2019-04-12T12:18:37.766Z,19296.00
2019-04-12T12:19:38.302Z,19392.00
2019-04-12T12:20:37.969Z,19552.00
2019-04-12T12:21:37.896Z,19616.00
2019-04-12T12:22:37.936Z,19616.00
2019-04-12T12:23:38.037Z,19488.00
2019-04-12T12:24:38.127Z,19264.00